Time;durP1;ratioP1;P1;durP2;ratioP2;P2;SDS_P1;SDS_P2;PMS_P1;PMS_P2;Temp;Humidity;BMP_temperature;BMP_pressure;BME280_temperature;BME280_humidity;BME280_pressure;Samples;Min_cycle;Max_cycle;Signal;HPM_P1;HPM_P2
2022/06/05 00:02:41;;;;;;;17.27;11.43;;;14.10;99.90;;;;;;5104360;28;20048;-71
2022/06/05 00:05:27;;;;;;;14.43;11.65;;;14.10;99.90;;;;;;5100890;28;20047;-71
2022/06/05 00:08:17;;;;;;;14.75;11.88;;;14.10;99.90;;;;;;5104470;28;20047;-71
2022/06/05 00:10:57;;;;;;;15.90;12.07;;;14.10;99.90;;;;;;5079320;28;20048;-71
2022/06/05 00:13:26;;;;;;;18.10;13.05;;;14.00;99.90;;;;;;5104205;28;20089;-71
2022/06/05 00:15:52;;;;;;;15.40;12.48;;;14.00;99.90;;;;;;5110221;28;20043;-71
2022/06/05 00:18:18;;;;;;;15.73;11.70;;;14.00;99.90;;;;;;5080243;28;20047;-71
2022/06/05 00:20:45;;;;;;;21.08;13.25;;;14.00;99.90;;;;;;5110934;28;20079;-71
2022/06/05 00:23:12;;;;;;;18.02;13.13;;;13.90;99.90;;;;;;5096256;28;20127;-71
2022/06/05 00:25:51;;;;;;;18.20;12.52;;;13.90;99.90;;;;;;5080823;28;20043;-71
2022/06/05 00:28:50;;;;;;;17.73;13.45;;;13.90;99.90;;;;;;5085915;28;20047;-70
2022/06/05 00:31:34;;;;;;;15.43;12.80;;;13.90;99.90;;;;;;5087418;28;20032;-71
2022/06/05 00:34:00;;;;;;;15.88;12.95;;;13.90;99.90;;;;;;5105754;28;20073;-71
2022/06/05 00:36:44;;;;;;;16.08;13.48;;;13.90;99.90;;;;;;5082140;28;20036;-71
2022/06/05 00:39:39;;;;;;;15.38;13.02;;;13.80;99.90;;;;;;5083391;28;20093;-71
2022/06/05 00:42:09;;;;;;;16.15;13.23;;;13.80;99.90;;;;;;5105244;28;20040;-71
2022/06/05 00:44:46;;;;;;;18.92;13.75;;;13.80;99.90;;;;;;5090983;28;20044;-71
2022/06/05 00:47:15;;;;;;;18.17;13.68;;;13.80;99.90;;;;;;5085510;28;20051;-71
2022/06/05 00:49:50;;;;;;;18.63;14.45;;;13.80;99.90;;;;;;5082485;28;20038;-71
2022/06/05 00:52:19;;;;;;;18.88;14.48;;;13.80;99.90;;;;;;5098155;28;20043;-71
2022/06/05 00:54:45;;;;;;;16.20;13.77;;;13.80;99.90;;;;;;5102595;28;20044;-71
2022/06/05 00:57:13;;;;;;;17.50;14.30;;;13.80;99.90;;;;;;5093051;28;20378;-71
2022/06/05 00:59:41;;;;;;;16.75;14.55;;;13.70;99.90;;;;;;5104333;28;20093;-71
2022/06/05 01:02:09;;;;;;;17.25;14.13;;;13.70;99.90;;;;;;5101855;28;20043;-71
2022/06/05 01:04:40;;;;;;;17.90;14.38;;;13.70;99.90;;;;;;5091291;28;20051;-71
2022/06/05 01:07:06;;;;;;;15.73;14.05;;;13.60;99.90;;;;;;5096336;28;20130;-71
2022/06/05 01:09:32;;;;;;;21.88;15.55;;;13.70;99.90;;;;;;5104329;28;20131;-72
2022/06/05 01:12:45;;;;;;;20.55;14.55;;;13.60;99.90;;;;;;5107840;28;20050;-71
2022/06/05 01:15:43;;;;;;;19.00;14.57;;;13.60;99.90;;;;;;5000417;28;20552;-71
2022/06/05 01:18:42;;;;;;;18.88;15.15;;;13.60;99.90;;;;;;5043478;28;20044;-71
2022/06/05 01:21:07;;;;;;;18.85;15.07;;;13.70;99.90;;;;;;5085038;28;20046;-70
2022/06/05 01:23:39;;;;;;;19.25;14.65;;;13.70;99.90;;;;;;5086840;28;20047;-71
2022/06/05 01:26:25;;;;;;;18.25;14.32;;;13.70;99.90;;;;;;5089745;28;20062;-71
2022/06/05 01:29:05;;;;;;;18.50;14.63;;;13.70;99.90;;;;;;5083555;28;20050;-71
2022/06/05 01:31:55;;;;;;;18.98;14.70;;;13.70;99.90;;;;;;5107534;28;20035;-71
2022/06/05 01:34:33;;;;;;;18.83;14.63;;;13.70;99.90;;;;;;5091220;28;20075;-71
2022/06/05 01:37:12;;;;;;;19.40;14.48;;;13.70;99.90;;;;;;5107953;28;20084;-71
2022/06/05 01:40:00;;;;;;;20.17;15.95;;;13.70;99.90;;;;;;5083066;28;20576;-71
2022/06/05 01:42:31;;;;;;;18.75;15.65;;;13.70;99.90;;;;;;5083100;28;20044;-71
2022/06/05 01:45:07;;;;;;;19.88;15.27;;;13.70;99.90;;;;;;5091056;28;20053;-71
2022/06/05 01:47:37;;;;;;;17.30;14.65;;;13.60;99.90;;;;;;5078881;28;20549;-71
2022/06/05 01:50:13;;;;;;;22.13;15.50;;;13.60;99.90;;;;;;5100325;28;20049;-72
2022/06/05 01:52:46;;;;;;;20.23;15.90;;;13.60;99.90;;;;;;5105299;28;20075;-71
2022/06/05 01:55:16;;;;;;;19.08;15.63;;;13.60;99.90;;;;;;5109454;28;20110;-72
2022/06/05 01:57:42;;;;;;;19.55;16.50;;;13.50;99.90;;;;;;5105414;28;22131;-72
2022/06/05 02:00:22;;;;;;;17.38;15.45;;;13.50;99.90;;;;;;5102869;28;20092;-72
2022/06/05 02:03:17;;;;;;;19.13;15.82;;;13.60;99.90;;;;;;5110305;28;20126;-71
2022/06/05 02:05:53;;;;;;;17.75;15.90;;;13.60;99.90;;;;;;5106638;28;21330;-71
2022/06/05 02:08:34;;;;;;;19.83;17.08;;;13.50;99.90;;;;;;5091232;28;20043;-71
2022/06/05 02:11:07;;;;;;;19.38;16.35;;;13.50;99.90;;;;;;5076297;28;20039;-71
2022/06/05 02:13:32;;;;;;;18.90;16.40;;;13.50;99.90;;;;;;5087354;28;20056;-71
2022/06/05 02:15:58;;;;;;;20.95;16.85;;;13.40;99.90;;;;;;5087961;28;20038;-71
2022/06/05 02:18:24;;;;;;;19.80;17.70;;;13.40;99.90;;;;;;5078381;28;20096;-71
2022/06/05 02:20:50;;;;;;;20.70;16.85;;;13.40;99.90;;;;;;5107131;28;20683;-71
2022/06/05 02:23:25;;;;;;;20.50;17.15;;;13.40;99.90;;;;;;5081565;28;20047;-71
2022/06/05 02:25:51;;;;;;;20.70;17.15;;;13.40;99.90;;;;;;5108441;28;20640;-71
2022/06/05 02:28:18;;;;;;;22.95;17.13;;;13.40;99.90;;;;;;5105646;28;20148;-71
2022/06/05 02:31:02;;;;;;;19.08;17.02;;;13.40;99.90;;;;;;5094429;28;20090;-71
2022/06/05 02:33:42;;;;;;;23.45;17.70;;;13.40;99.90;;;;;;5095004;28;20039;-71
2022/06/05 02:36:14;;;;;;;21.70;17.20;;;13.40;99.90;;;;;;5100468;28;20035;-71
2022/06/05 02:39:16;;;;;;;20.30;17.75;;;13.40;99.90;;;;;;5097761;28;20036;-71
2022/06/05 02:42:19;;;;;;;21.63;16.75;;;13.40;99.90;;;;;;5087365;28;20048;-71
2022/06/05 02:45:14;;;;;;;20.08;17.67;;;13.30;99.90;;;;;;5101275;28;20044;-71
2022/06/05 02:48:01;;;;;;;19.50;17.17;;;13.30;99.90;;;;;;5083513;28;20044;-71
2022/06/05 02:50:48;;;;;;;19.05;17.00;;;13.20;99.90;;;;;;5100235;28;20603;-71
2022/06/05 02:53:14;;;;;;;23.02;17.45;;;13.30;99.90;;;;;;5109094;28;20043;-71
2022/06/05 02:55:41;;;;;;;22.23;17.70;;;13.20;99.90;;;;;;5108756;28;20067;-71
2022/06/05 02:58:08;;;;;;;20.48;18.08;;;13.20;99.90;;;;;;5079463;28;20039;-70
2022/06/05 03:00:39;;;;;;;24.65;17.77;;;13.20;99.90;;;;;;5099856;28;20032;-71
2022/06/05 03:05:49;;;;;;;21.90;18.35;;;13.20;99.90;;;;;;5100081;28;20052;-70
2022/06/05 03:08:18;;;;;;;21.48;18.33;;;13.20;99.90;;;;;;5100781;28;20062;-71
2022/06/05 03:10:44;;;;;;;23.98;18.02;;;13.30;99.90;;;;;;5083616;28;20061;-71
2022/06/05 03:13:11;;;;;;;22.88;18.30;;;13.20;99.90;;;;;;5103253;28;20044;-70
2022/06/05 03:15:38;;;;;;;21.70;18.80;;;13.20;99.90;;;;;;5100058;28;20584;-71
2022/06/05 03:18:04;;;;;;;22.60;17.95;;;13.20;99.90;;;;;;5076152;28;20052;-71
2022/06/05 03:20:30;;;;;;;19.80;17.33;;;13.20;99.90;;;;;;5098176;28;20094;-71
2022/06/05 03:22:56;;;;;;;23.05;18.88;;;13.20;99.90;;;;;;5085088;28;20039;-71
2022/06/05 03:25:24;;;;;;;24.00;18.40;;;13.20;99.90;;;;;;5087731;28;20391;-71
2022/06/05 03:27:49;;;;;;;23.05;18.27;;;13.20;99.90;;;;;;5082912;28;20439;-71
2022/06/05 03:30:16;;;;;;;22.33;18.67;;;13.20;99.90;;;;;;5072538;28;20079;-71
2022/06/05 03:32:43;;;;;;;22.80;18.07;;;13.20;99.90;;;;;;5097673;28;20078;-71
2022/06/05 03:35:10;;;;;;;23.73;20.13;;;13.20;99.90;;;;;;5072635;28;20043;-70
2022/06/05 03:37:39;;;;;;;26.33;18.73;;;13.20;99.90;;;;;;5102809;28;20118;-71
2022/06/05 03:40:10;;;;;;;20.67;18.02;;;13.30;99.90;;;;;;5108336;28;20038;-71
2022/06/05 03:42:35;;;;;;;21.50;18.63;;;13.30;99.90;;;;;;5086512;28;20440;-72
2022/06/05 03:45:01;;;;;;;20.20;18.08;;;13.30;99.90;;;;;;5100700;28;20043;-71
2022/06/05 03:47:26;;;;;;;22.58;18.20;;;13.30;99.90;;;;;;5103832;28;20043;-71
2022/06/05 03:49:52;;;;;;;21.10;18.17;;;13.30;99.90;;;;;;5078057;28;20044;-71
2022/06/05 03:52:18;;;;;;;22.38;18.35;;;13.30;99.90;;;;;;5102367;28;20040;-71
2022/06/05 03:54:44;;;;;;;20.67;18.42;;;13.30;99.90;;;;;;5093737;28;20364;-71
2022/06/05 03:57:09;;;;;;;21.17;17.60;;;13.40;99.90;;;;;;5102628;28;20131;-72
2022/06/05 03:59:36;;;;;;;21.02;17.75;;;13.40;99.90;;;;;;5073031;28;20035;-71
2022/06/05 04:02:04;;;;;;;21.98;17.65;;;13.40;99.90;;;;;;5105889;28;20048;-71
2022/06/05 04:04:31;;;;;;;27.08;17.35;;;13.40;99.90;;;;;;5106891;28;20466;-71
2022/06/05 04:06:57;;;;;;;20.85;17.65;;;13.50;99.90;;;;;;5100878;28;20487;-71
2022/06/05 04:09:23;;;;;;;19.52;17.50;;;13.50;99.90;;;;;;5078376;28;20036;-71
2022/06/05 04:11:48;;;;;;;23.83;18.50;;;13.50;99.90;;;;;;5073675;28;20040;-71
2022/06/05 04:14:14;;;;;;;20.48;17.90;;;13.60;99.90;;;;;;5087785;28;20043;-71
2022/06/05 04:16:43;;;;;;;20.35;18.33;;;13.60;99.90;;;;;;5097359;28;20040;-71
2022/06/05 04:19:09;;;;;;;19.88;17.77;;;13.60;99.90;;;;;;5095004;28;20043;-71
2022/06/05 04:21:37;;;;;;;20.00;17.90;;;13.60;99.90;;;;;;5102011;28;20531;-71
2022/06/05 04:24:04;;;;;;;22.15;18.52;;;13.60;99.90;;;;;;5097376;28;20039;-71
2022/06/05 04:26:33;;;;;;;21.08;18.05;;;13.60;99.90;;;;;;5099287;28;20043;-70
2022/06/05 04:28:59;;;;;;;20.08;17.70;;;13.60;99.90;;;;;;5084611;28;20490;-71
2022/06/05 04:31:29;;;;;;;20.25;17.88;;;13.70;99.90;;;;;;5075248;28;20126;-71
2022/06/05 04:33:57;;;;;;;21.13;18.48;;;13.70;99.90;;;;;;5081843;28;20131;-71
2022/06/05 04:36:24;;;;;;;25.45;18.27;;;13.80;99.90;;;;;;5100685;28;20044;-71
2022/06/05 04:38:50;;;;;;;20.42;18.23;;;13.80;99.90;;;;;;5098995;28;20036;-71
2022/06/05 04:41:18;;;;;;;20.73;17.88;;;13.90;99.90;;;;;;5075485;28;20039;-71
2022/06/05 04:43:44;;;;;;;19.45;17.45;;;13.90;99.90;;;;;;5098374;28;20533;-71
2022/06/05 04:46:10;;;;;;;20.52;18.33;;;13.90;99.90;;;;;;5071812;28;20044;-71
2022/06/05 04:48:35;;;;;;;19.40;17.38;;;13.90;99.90;;;;;;5105157;28;20042;-71
2022/06/05 04:51:09;;;;;;;22.17;17.90;;;14.00;99.90;;;;;;5079660;28;20127;-71
2022/06/05 04:53:35;;;;;;;21.30;17.17;;;14.10;99.90;;;;;;5081880;28;20095;-71
2022/06/05 04:56:06;;;;;;;19.98;17.80;;;14.10;99.90;;;;;;5103829;28;20039;-71
2022/06/05 04:58:32;;;;;;;18.83;16.83;;;14.20;99.90;;;;;;5108004;28;20043;-70
2022/06/05 05:00:59;;;;;;;20.05;17.92;;;14.20;99.90;;;;;;5108731;27;20083;-71
2022/06/05 05:03:25;;;;;;;21.17;18.40;;;14.30;99.90;;;;;;5104518;28;20088;-71
2022/06/05 05:05:51;;;;;;;19.13;17.00;;;14.40;99.90;;;;;;5099623;28;20105;-71
2022/06/05 05:08:16;;;;;;;20.15;16.77;;;14.50;99.90;;;;;;5072358;28;20048;-71
2022/06/05 05:10:42;;;;;;;19.20;17.17;;;14.60;99.90;;;;;;5087246;28;20051;-71
2022/06/05 05:13:08;;;;;;;19.48;17.35;;;14.60;99.90;;;;;;5078208;28;20471;-72
2022/06/05 05:15:34;;;;;;;19.17;16.90;;;14.70;99.90;;;;;;5098148;28;20043;-72
2022/06/05 05:18:00;;;;;;;18.52;16.45;;;14.80;99.90;;;;;;5092482;28;20486;-73
2022/06/05 05:20:26;;;;;;;17.80;15.93;;;14.80;99.90;;;;;;5100144;28;20040;-73
2022/06/05 05:22:52;;;;;;;18.50;16.50;;;15.00;99.90;;;;;;5105411;28;20031;-73
2022/06/05 05:25:18;;;;;;;18.02;16.13;;;15.10;99.90;;;;;;5095824;28;20054;-73
2022/06/05 05:27:44;;;;;;;18.05;16.25;;;15.10;99.90;;;;;;5102080;28;20097;-73
2022/06/05 05:30:11;;;;;;;17.40;15.70;;;15.20;99.90;;;;;;5079007;28;20126;-73
2022/06/05 05:32:37;;;;;;;18.30;15.68;;;15.30;99.90;;;;;;5110473;28;20047;-72
2022/06/05 05:35:04;;;;;;;18.48;16.23;;;15.40;99.90;;;;;;5079847;28;20436;-72
2022/06/05 05:37:30;;;;;;;;;;;15.50;99.90;;;;;;5108592;28;20750;-72
2022/06/05 05:42:44;;;;;;;17.77;15.73;;;15.50;99.90;;;;;;5076320;28;20402;-72
2022/06/05 05:45:10;;;;;;;17.45;15.65;;;15.60;99.90;;;;;;5108772;28;20032;-72
2022/06/05 05:47:36;;;;;;;17.15;15.35;;;15.60;99.90;;;;;;5090899;28;20051;-72
2022/06/05 05:50:07;;;;;;;17.17;15.43;;;15.70;99.90;;;;;;5102885;28;20042;-72
2022/06/05 05:52:33;;;;;;;15.95;14.20;;;15.70;99.90;;;;;;5097771;28;20088;-72
2022/06/05 05:54:59;;;;;;;16.92;14.20;;;15.80;99.90;;;;;;5099767;28;20032;-72
2022/06/05 05:57:26;;;;;;;16.50;13.85;;;15.80;99.90;;;;;;5078471;28;21760;-72
2022/06/05 05:59:52;;;;;;;17.40;14.05;;;15.90;99.90;;;;;;5107122;28;20048;-72
2022/06/05 06:02:21;;;;;;;16.13;14.48;;;15.90;99.90;;;;;;5101540;28;20046;-72
2022/06/05 06:04:48;;;;;;;15.25;13.65;;;16.00;99.90;;;;;;5109345;28;20039;-72
2022/06/05 06:07:15;;;;;;;15.10;13.50;;;16.00;99.90;;;;;;5109214;28;20046;-72
2022/06/05 06:09:42;;;;;;;14.75;13.20;;;16.10;99.90;;;;;;5085030;28;20046;-72
2022/06/05 06:12:09;;;;;;;15.47;13.27;;;16.10;99.90;;;;;;5098126;28;20515;-71
2022/06/05 06:14:34;;;;;;;14.77;13.25;;;16.20;99.90;;;;;;5088864;28;20305;-71
2022/06/05 06:17:00;;;;;;;14.45;12.90;;;16.20;99.90;;;;;;5101903;28;20360;-72
2022/06/05 06:19:26;;;;;;;14.32;12.30;;;16.30;99.90;;;;;;5090755;28;20048;-72
2022/06/05 06:21:52;;;;;;;14.95;12.95;;;16.30;99.90;;;;;;5097685;28;20044;-72
2022/06/05 06:24:18;;;;;;;14.02;12.52;;;16.40;99.90;;;;;;5071826;28;20075;-72
2022/06/05 06:26:44;;;;;;;15.98;12.52;;;16.50;99.90;;;;;;5100977;28;20356;-72
2022/06/05 06:29:10;;;;;;;16.90;12.50;;;16.50;99.90;;;;;;5104271;28;20058;-73
2022/06/05 06:31:38;;;;;;;14.98;12.70;;;16.60;99.90;;;;;;5091962;28;20048;-72
2022/06/05 06:34:05;;;;;;;14.75;12.43;;;16.70;99.90;;;;;;5107066;28;20048;-72
2022/06/05 06:36:34;;;;;;;15.70;11.95;;;16.80;99.90;;;;;;5109200;28;20044;-72
2022/06/05 06:39:00;;;;;;;13.30;11.90;;;16.80;99.90;;;;;;5076908;28;20452;-72
2022/06/05 06:41:26;;;;;;;13.18;11.85;;;16.90;99.90;;;;;;5097343;28;20032;-72
2022/06/05 06:43:51;;;;;;;13.23;11.93;;;17.00;99.90;;;;;;5105932;28;20075;-72
2022/06/05 06:46:18;;;;;;;14.50;12.32;;;17.10;99.90;;;;;;5076467;28;20070;-72
2022/06/05 06:48:44;;;;;;;15.02;12.57;;;17.20;99.90;;;;;;5108590;28;20050;-72
2022/06/05 06:51:10;;;;;;;13.55;12.10;;;17.30;99.90;;;;;;5095043;28;20040;-72
2022/06/05 06:53:40;;;;;;;14.18;11.68;;;17.40;99.90;;;;;;5091318;28;20457;-73
2022/06/05 06:56:12;;;;;;;13.30;11.40;;;17.40;99.90;;;;;;5083300;28;20480;-73
2022/06/05 06:58:38;;;;;;;12.90;11.55;;;17.60;99.90;;;;;;5075254;28;20093;-71
2022/06/05 07:01:04;;;;;;;13.20;11.73;;;17.60;99.90;;;;;;5100043;28;20088;-72
2022/06/05 07:03:30;;;;;;;13.57;12.18;;;17.70;99.90;;;;;;5071871;28;20040;-73
2022/06/05 07:05:56;;;;;;;13.50;12.07;;;17.80;99.90;;;;;;5102686;28;20166;-73
2022/06/05 07:08:22;;;;;;;12.32;11.02;;;17.90;99.90;;;;;;5104571;28;20126;-71
2022/06/05 07:10:48;;;;;;;12.93;11.07;;;17.90;99.90;;;;;;5094030;28;20166;-71
2022/06/05 07:13:13;;;;;;;11.95;10.75;;;18.00;99.90;;;;;;5110257;28;20051;-71
2022/06/05 07:15:39;;;;;;;12.35;11.05;;;18.10;99.90;;;;;;5089087;28;20039;-71
2022/06/05 07:18:07;;;;;;;12.20;10.40;;;18.20;99.90;;;;;;5083167;28;20040;-70
2022/06/05 07:20:37;;;;;;;;;;;18.30;99.90;;;;;;5095315;28;20078;-71
2022/06/05 07:23:03;;;;;;;12.10;10.75;;;18.40;99.90;;;;;;5097551;28;19935;-70
2022/06/05 07:25:31;;;;;;;11.25;9.93;;;18.50;99.90;;;;;;5100838;28;20386;-70
2022/06/05 07:27:56;;;;;;;12.55;10.13;;;18.50;99.90;;;;;;5079259;28;20060;-70
2022/06/05 07:30:22;;;;;;;12.00;10.80;;;18.60;99.90;;;;;;5086035;28;20051;-70
2022/06/05 07:32:48;;;;;;;12.38;9.52;;;18.70;99.90;;;;;;5108804;28;20059;-71
2022/06/05 07:35:14;;;;;;;11.45;9.55;;;18.80;99.90;;;;;;5086668;28;20044;-72
2022/06/05 07:37:41;;;;;;;9.90;9.00;;;18.80;99.90;;;;;;5078207;28;20055;-72
2022/06/05 07:40:08;;;;;;;11.40;9.73;;;18.90;99.90;;;;;;5105043;28;20051;-72
2022/06/05 07:42:38;;;;;;;14.13;10.25;;;19.00;99.90;;;;;;5074498;28;20042;-72
2022/06/05 07:45:05;;;;;;;11.02;9.77;;;19.10;99.90;;;;;;5100816;28;20157;-71
2022/06/05 07:47:31;;;;;;;11.40;9.77;;;19.20;99.90;;;;;;5097504;28;20062;-71
2022/06/05 07:49:57;;;;;;;9.57;8.63;;;19.20;99.90;;;;;;5095370;28;20056;-70
2022/06/05 07:55:07;;;;;;;10.73;9.63;;;19.30;99.90;;;;;;5092506;28;20373;-71
2022/06/05 07:57:35;;;;;;;10.50;8.80;;;19.40;99.90;;;;;;5082124;28;20511;-70
2022/06/05 08:00:01;;;;;;;9.95;8.95;;;19.50;99.90;;;;;;5099372;28;20043;-70
2022/06/05 08:02:28;;;;;;;10.65;9.60;;;19.50;99.90;;;;;;5103819;28;20503;-73
2022/06/05 08:04:55;;;;;;;11.38;8.77;;;19.60;99.90;;;;;;5105361;28;20035;-72
2022/06/05 08:07:26;;;;;;;11.32;9.15;;;19.60;99.90;;;;;;5107260;28;20629;-69
2022/06/05 08:09:52;;;;;;;10.13;8.93;;;19.60;99.90;;;;;;5107440;28;20390;-73
2022/06/05 08:12:20;;;;;;;9.90;8.60;;;19.70;99.90;;;;;;5095273;28;20051;-71
2022/06/05 08:14:49;;;;;;;10.00;8.93;;;19.70;99.90;;;;;;5075474;28;20044;-71
2022/06/05 08:17:25;;;;;;;11.50;8.88;;;19.80;99.90;;;;;;5096614;28;20857;-71
2022/06/05 08:19:51;;;;;;;9.38;8.30;;;19.80;99.90;;;;;;5071605;28;20036;-73
2022/06/05 08:22:19;;;;;;;9.80;8.80;;;19.90;99.90;;;;;;5101954;28;20054;-73
2022/06/05 08:24:45;;;;;;;12.68;9.18;;;20.00;99.90;;;;;;5078624;28;20126;-72
2022/06/05 08:27:16;;;;;;;10.80;8.98;;;20.00;99.90;;;;;;5078666;28;20194;-72
2022/06/05 08:29:42;;;;;;;9.75;8.65;;;20.00;99.90;;;;;;5069858;28;20109;-73
2022/06/05 08:32:09;;;;;;;11.90;8.77;;;20.10;99.90;;;;;;5103748;28;20051;-72
2022/06/05 08:34:35;;;;;;;11.80;8.60;;;20.10;99.90;;;;;;5089418;28;20044;-73
2022/06/05 08:42:29;;;;;;;10.35;8.82;;;20.30;99.90;;;;;;5087194;28;20083;-72
2022/06/05 08:45:09;;;;;;;9.88;8.55;;;20.40;99.90;;;;;;5111465;28;20041;-72
2022/06/05 08:47:57;;;;;;;9.60;8.63;;;20.60;99.90;;;;;;5091680;28;20460;-71
2022/06/05 08:50:48;;;;;;;9.13;8.20;;;20.60;99.90;;;;;;5093657;28;20801;-72
2022/06/05 08:53:42;;;;;;;9.88;8.40;;;20.80;99.90;;;;;;5077908;28;20067;-72
2022/06/05 08:56:19;;;;;;;10.43;9.07;;;20.80;99.90;;;;;;5087026;28;20080;-71
2022/06/05 08:58:57;;;;;;;9.90;8.75;;;20.90;99.90;;;;;;5111661;28;20067;-72
2022/06/05 09:01:42;;;;;;;11.93;8.90;;;21.00;99.90;;;;;;5100379;28;20164;-73
2022/06/05 09:04:16;;;;;;;9.70;8.15;;;21.00;99.90;;;;;;5109353;28;20054;-72
2022/06/05 09:06:45;;;;;;;9.13;8.23;;;21.10;99.90;;;;;;5079944;28;20045;-71
2022/06/05 09:09:25;;;;;;;10.65;8.27;;;21.20;99.90;;;;;;5084326;28;20562;-73
2022/06/05 09:12:11;;;;;;;10.93;8.18;;;21.30;99.90;;;;;;5079403;28;20048;-72
2022/06/05 09:14:45;;;;;;;10.23;8.50;;;21.50;99.90;;;;;;5100400;28;20039;-72
2022/06/05 09:17:15;;;;;;;9.57;8.15;;;21.60;99.90;;;;;;5108634;28;20040;-73
2022/06/05 09:19:42;;;;;;;9.70;8.27;;;21.70;99.90;;;;;;5108598;28;20039;-73
2022/06/05 09:22:16;;;;;;;11.50;9.18;;;21.90;99.90;;;;;;5098237;28;20966;-72
2022/06/05 09:25:01;;;;;;;9.82;8.82;;;22.00;99.90;;;;;;5105352;28;20116;-75
2022/06/05 09:27:26;;;;;;;9.90;8.07;;;22.00;99.90;;;;;;5101705;28;20058;-72
2022/06/05 09:29:55;;;;;;;10.23;8.07;;;22.10;99.90;;;;;;5107974;28;20502;-76
2022/06/05 09:33:00;;;;;;;10.57;8.02;;;22.20;99.90;;;;;;5097895;28;20078;-73
2022/06/05 09:35:35;;;;;;;12.15;8.85;;;22.30;99.90;;;;;;5084977;28;20112;-74
2022/06/05 09:38:16;;;;;;;14.60;8.70;;;22.30;99.90;;;;;;5076655;28;20054;-72
2022/06/05 09:40:57;;;;;;;9.18;8.13;;;22.40;99.90;;;;;;5103072;28;20401;-73
2022/06/05 09:43:46;;;;;;;8.48;7.63;;;22.50;99.90;;;;;;5101559;28;20044;-74
2022/06/05 09:46:33;;;;;;;12.32;8.25;;;22.50;99.90;;;;;;5098101;28;20149;-74
2022/06/05 09:49:18;;;;;;;11.63;7.75;;;22.60;99.90;;;;;;5106534;28;20070;-74
2022/06/05 09:51:45;;;;;;;9.13;8.20;;;22.70;99.90;;;;;;5104167;28;20051;-78
2022/06/05 09:54:30;;;;;;;9.47;8.47;;;22.80;99.90;;;;;;5100408;28;20039;-76
2022/06/05 10:00:15;;;;;;;;;;;23.00;99.90;;;;;;5097651;28;20467;-75
2022/06/05 10:02:43;;;;;;;10.57;7.40;;;23.10;99.90;;;;;;5103332;28;19920;-76
2022/06/05 10:05:27;;;;;;;7.97;6.57;;;23.10;99.90;;;;;;5101862;28;20044;-74
2022/06/05 10:07:59;;;;;;;11.32;7.95;;;23.30;99.90;;;;;;5078396;28;20051;-77
2022/06/05 10:10:32;;;;;;;10.13;8.65;;;23.40;99.90;;;;;;5102800;28;20036;-78
2022/06/05 10:13:09;;;;;;;9.50;7.97;;;23.40;99.90;;;;;;5089544;28;20082;-76
2022/06/05 10:15:50;;;;;;;10.15;8.45;;;23.40;99.90;;;;;;5105512;28;20553;-75
2022/06/05 10:18:53;;;;;;;10.18;8.25;;;23.50;99.90;;;;;;5098037;28;20048;-74
2022/06/05 10:21:22;;;;;;;13.15;8.77;;;23.50;99.90;;;;;;5099228;28;20101;-74
2022/06/05 10:23:51;;;;;;;9.32;8.40;;;23.50;99.90;;;;;;5098561;28;20509;-73
2022/06/05 10:26:32;;;;;;;9.05;8.05;;;23.50;99.90;;;;;;5101055;28;20036;-74
2022/06/05 10:29:08;;;;;;;9.27;7.65;;;23.50;99.90;;;;;;5104546;28;20136;-72
2022/06/05 10:31:35;;;;;;;8.85;8.00;;;23.50;99.90;;;;;;5103232;28;20051;-72
2022/06/05 10:34:44;;;;;;;10.30;8.35;;;23.50;99.90;;;;;;5099637;28;20047;-73
2022/06/05 10:37:25;;;;;;;8.98;8.07;;;23.50;99.90;;;;;;5100182;28;20100;-72
2022/06/05 10:40:08;;;;;;;8.77;7.97;;;23.60;99.90;;;;;;5107061;28;20047;-73
2022/06/05 10:42:54;;;;;;;9.38;8.25;;;23.80;99.90;;;;;;5109116;28;20036;-73
2022/06/05 10:45:54;;;;;;;11.23;8.15;;;23.80;99.10;;;;;;5103645;28;20050;-72
2022/06/05 10:48:57;;;;;;;12.07;8.02;;;23.80;99.70;;;;;;5094557;28;20040;-72
2022/06/05 10:51:32;;;;;;;10.30;8.13;;;23.80;99.20;;;;;;5079010;28;20052;-72
2022/06/05 10:54:18;;;;;;;9.38;7.93;;;23.80;99.10;;;;;;5084278;28;20047;-73
2022/06/05 10:56:57;;;;;;;9.77;7.50;;;23.80;97.80;;;;;;5078715;28;20047;-69
2022/06/05 10:59:44;;;;;;;9.52;7.70;;;23.80;99.10;;;;;;5096300;28;20043;-69
2022/06/05 11:02:16;;;;;;;9.52;7.70;;;23.80;98.90;;;;;;5099342;28;20040;-69
2022/06/05 11:04:49;;;;;;;8.52;7.53;;;23.70;98.30;;;;;;5096312;28;20075;-70
2022/06/05 11:07:43;;;;;;;8.93;7.30;;;23.70;99.40;;;;;;5076442;28;20560;-72
2022/06/05 11:14:10;;;;;;;8.38;7.45;;;23.70;99.00;;;;;;5073380;28;20048;-71
2022/06/05 11:16:57;;;;;;;8.10;7.30;;;23.70;98.80;;;;;;5062145;28;20491;-71
2022/06/05 11:19:42;;;;;;;10.48;7.38;;;23.70;99.50;;;;;;5101100;28;20047;-71
2022/06/05 11:22:15;;;;;;;8.63;7.40;;;23.80;99.90;;;;;;5083386;28;20495;-71
2022/06/05 11:25:13;;;;;;;11.43;7.57;;;23.80;99.90;;;;;;5098939;28;20031;-71
2022/06/05 11:28:17;;;;;;;9.00;7.97;;;23.90;99.00;;;;;;5090439;28;20088;-72
2022/06/05 11:30:49;;;;;;;9.68;6.97;;;23.90;98.80;;;;;;5039269;28;20051;-72
2022/06/05 11:33:23;;;;;;;7.90;7.15;;;23.90;98.40;;;;;;5106616;28;20077;-72
2022/06/05 11:36:13;;;;;;;8.07;6.90;;;23.90;99.20;;;;;;5098683;28;21685;-72
2022/06/05 11:39:01;;;;;;;11.07;7.38;;;23.90;99.30;;;;;;5089057;28;20093;-73
2022/06/05 11:42:05;;;;;;;10.07;7.03;;;23.90;99.60;;;;;;5085897;28;20093;-72
2022/06/05 11:44:45;;;;;;;9.35;7.68;;;23.90;99.20;;;;;;5100585;28;20036;-72
2022/06/05 11:47:45;;;;;;;8.15;7.32;;;23.90;98.70;;;;;;5108313;28;20483;-72
2022/06/05 11:50:32;;;;;;;8.38;7.45;;;23.80;99.00;;;;;;5089101;28;20047;-72
2022/06/05 11:53:30;;;;;;;9.40;7.65;;;23.80;99.10;;;;;;5088424;28;20047;-71
2022/06/05 11:55:58;;;;;;;8.23;7.43;;;23.80;99.60;;;;;;5071672;28;20044;-72
2022/06/05 11:58:41;;;;;;;8.65;7.70;;;23.80;99.60;;;;;;5076780;28;20089;-72
2022/06/05 12:01:19;;;;;;;8.23;7.43;;;23.70;99.40;;;;;;5084048;28;20055;-72
2022/06/05 12:03:59;;;;;;;7.63;6.93;;;23.70;99.60;;;;;;5094263;28;20364;-73
2022/06/05 12:06:38;;;;;;;8.20;7.40;;;23.70;99.90;;;;;;5101717;28;20062;-73
2022/06/05 12:09:10;;;;;;;8.73;7.10;;;23.70;99.90;;;;;;5085065;28;20127;-73
2022/06/05 12:12:05;;;;;;;7.93;7.22;;;23.70;99.90;;;;;;5082822;28;20035;-72
2022/06/05 12:14:51;;;;;;;8.02;7.22;;;23.70;99.90;;;;;;5101216;28;20521;-72
2022/06/05 12:17:29;;;;;;;8.50;7.70;;;23.70;99.90;;;;;;5074995;28;20048;-71
2022/06/05 12:20:00;;;;;;;9.07;7.18;;;23.70;99.90;;;;;;5083691;28;20043;-71
2022/06/05 12:22:49;;;;;;;8.02;7.22;;;23.70;99.90;;;;;;5081066;28;20058;-71
2022/06/05 12:25:28;;;;;;;9.45;7.60;;;23.80;99.90;;;;;;5085333;28;20043;-72
2022/06/05 12:28:03;;;;;;;9.10;7.07;;;23.80;99.90;;;;;;5094247;28;20502;-72
2022/06/05 12:30:36;;;;;;;7.85;7.05;;;23.80;99.90;;;;;;5081062;28;20821;-72
2022/06/05 12:33:30;;;;;;;8.02;7.20;;;23.80;99.50;;;;;;5096157;28;20114;-72
2022/06/05 12:36:13;;;;;;;8.82;6.90;;;23.90;99.90;;;;;;5104407;28;20032;-70
2022/06/05 12:38:52;;;;;;;10.95;7.20;;;23.90;99.60;;;;;;5094537;28;20126;-71
2022/06/05 12:41:23;;;;;;;8.68;7.18;;;24.00;98.80;;;;;;5095839;28;20032;-71
2022/06/05 12:44:17;;;;;;;8.65;7.47;;;24.00;99.60;;;;;;5089371;28;20120;-71
2022/06/05 12:46:52;;;;;;;10.35;7.20;;;24.10;99.00;;;;;;5077368;28;20114;-68
2022/06/05 12:49:57;;;;;;;9.50;7.28;;;24.10;99.50;;;;;;5097570;28;20063;-70
2022/06/05 12:52:26;;;;;;;8.02;7.32;;;24.10;99.30;;;;;;5089953;28;20135;-70
2022/06/05 12:55:05;;;;;;;8.20;7.13;;;24.10;99.40;;;;;;5091802;28;20495;-71
2022/06/05 12:57:50;;;;;;;11.05;7.43;;;24.10;99.10;;;;;;5078933;28;20082;-70
2022/06/05 13:00:52;;;;;;;7.78;6.82;;;24.10;98.50;;;;;;5069954;28;20055;-70
2022/06/05 13:03:42;;;;;;;9.65;6.88;;;24.00;98.90;;;;;;5081378;28;20063;-70
2022/06/05 13:06:25;;;;;;;8.80;6.95;;;24.00;99.60;;;;;;5075268;28;20390;-70
2022/06/05 13:08:55;;;;;;;7.75;6.95;;;24.00;99.90;;;;;;5095758;28;20122;-70
2022/06/05 13:11:46;;;;;;;9.30;6.63;;;24.00;99.70;;;;;;5096216;28;20372;-72
2022/06/05 13:14:15;;;;;;;7.63;6.68;;;24.00;99.90;;;;;;5096637;28;20763;-72
2022/06/05 13:17:00;;;;;;;10.10;7.18;;;24.00;99.30;;;;;;5072590;28;20074;-73
2022/06/05 13:19:34;;;;;;;7.22;6.47;;;24.00;98.70;;;;;;5081482;28;20044;-69
2022/06/05 13:22:27;;;;;;;8.52;6.75;;;24.00;98.90;;;;;;5103972;28;20036;-70
2022/06/05 13:25:08;;;;;;;10.45;6.25;;;24.00;98.60;;;;;;5076886;28;20044;-71
2022/06/05 13:27:55;;;;;;;9.32;6.65;;;23.90;99.40;;;;;;5108974;28;20123;-72
2022/06/05 13:30:27;;;;;;;9.13;6.90;;;23.90;99.10;;;;;;5097441;28;20040;-71
2022/06/05 13:33:16;;;;;;;6.90;6.30;;;24.00;99.60;;;;;;5093667;28;20036;-70